Home   Weather   France   Saint-Étienne   Past weeks
Flag for France

Past Weather in Saint-Étienne, Loire, France — Yesterday and Last 2 Weeks

Currently: 39 °F. Passing clouds. (Weather station: St-Etienne Boutheon, France). See more current weather

Past Weather in Saint-Étienne — Graph

°F

Saint-Étienne Temperature Yesterday

Maximum temperature yesterday: 54 °F (at 12:00 am)
Minimum temperature yesterday: 39 °F (at 10:00 pm)
Average temperature yesterday: 46 °F

High & Low Weather Summary for the Past Weeks

 TemperatureHumidityPressure
High82 °F (Apr 14, 5:00 pm)100% (Apr 9, 7:00 am)30.54 "Hg (Apr 9, 7:00 am)
Low27 °F (Apr 19, 6:30 am)20% (Apr 8, 9:30 pm)29.65 "Hg (Apr 8, 9:30 pm)
Average55 °F63%30.14 "Hg
* Reported Apr 5 10:00 pm — Apr 20 10:00 pm, Saint-Étienne. Weather by CustomWeather, © 2024

Note: Actual official high and low records may vary slightly from our data, if they occured in-between our weather recording intervals... More about our weather records

Saint-Étienne Weather History for the Previous 24 Hours

Scroll right to see more
 ConditionsComfort  
Time TempWeatherWind HumidityBarometerVisibility
10:00 pm
Sat, Apr 20
39 °FPassing clouds.2 mph75%30.21 "HgN/A
9:30 pm41 °FClear.5 mph70%30.18 "Hg10 mi
9:00 pm41 °FClear.5 mph70%30.18 "Hg10 mi
8:30 pm45 °FSunny.7 mph61%30.18 "Hg10 mi
8:00 pm45 °FSunny.8 mph61%30.15 "Hg10 mi
7:30 pm46 °FPassing clouds.14 mph53%30.15 "HgN/A
7:00 pm48 °FPassing clouds.14 mph54%30.15 "HgN/A
6:30 pm48 °FSunny.12 mph54%30.15 "Hg10 mi
6:00 pm46 °FOvercast.14 mph57%30.15 "HgN/A
5:30 pm48 °FBroken clouds.12 mph58%30.15 "HgN/A
5:00 pm48 °FOvercast.14 mph58%30.15 "HgN/A
4:30 pm48 °FMostly cloudy.10 mph58%30.15 "HgN/A
4:00 pm46 °FMostly cloudy.13 mph57%30.18 "HgN/A
3:00 pm46 °FMostly cloudy.15 mph57%30.18 "HgN/A
2:30 pm46 °FOvercast.15 mph62%30.18 "HgN/A
2:00 pm46 °FMostly cloudy.16 mph57%30.18 "HgN/A
1:30 pm46 °FBroken clouds.14 mph62%30.18 "HgN/A
1:00 pm46 °FMore clouds than sun.15 mph62%30.18 "HgN/A
12:30 pm46 °FOvercast.13 mph62%30.18 "HgN/A
12:00 pm45 °FCloudy.13 mph61%30.18 "HgN/A
11:30 am45 °FCloudy.13 mph61%30.18 "HgN/A
11:00 am45 °FMostly cloudy.12 mph61%30.18 "HgN/A
10:30 am43 °FBroken clouds.14 mph66%30.15 "HgN/A
10:00 am43 °FPartly sunny.15 mph76%30.15 "HgN/A
9:30 am45 °FPartly sunny.13 mph76%30.15 "HgN/A
9:00 am41 °FMostly cloudy.14 mph87%30.15 "HgN/A
8:30 am41 °FMostly cloudy.13 mph87%30.12 "HgN/A
8:00 am41 °FPassing clouds.10 mph87%30.12 "HgN/A
7:30 am41 °FMostly cloudy.15 mph87%30.09 "HgN/A
7:00 am45 °FPartly sunny.13 mph87%30.09 "HgN/A
6:30 am45 °FPassing clouds.7 mph87%30.09 "HgN/A
6:00 am45 °FMostly cloudy.8 mph87%30.07 "HgN/A
5:30 am45 °FOvercast.6 mph93%30.07 "HgN/A
5:00 am45 °FMostly cloudy.8 mph93%30.07 "HgN/A
4:30 am45 °FMostly cloudy.9 mph100%30.07 "HgN/A
4:00 am45 °FPassing clouds.12 mph93%30.04 "HgN/A
3:30 am46 °FPartly cloudy.12 mph87%30.07 "HgN/A
3:00 am48 °FMostly cloudy.9 mph82%30.04 "HgN/A
2:30 am48 °FMostly cloudy.9 mph87%30.07 "HgN/A
2:00 am48 °FMostly cloudy.7 mph87%30.07 "HgN/A
1:30 am48 °FLight rain. Partly cloudy.10 mph87%30.07 "Hg5 mi
1:00 am52 °FMostly cloudy.9 mph67%30.07 "HgN/A
12:30 am54 °FMostly cloudy.9 mph58%30.04 "HgN/A
12:00 am54 °FOvercast.6 mph58%30.04 "HgN/A
Weather by CustomWeather, © 2024

See weather overview